Terminal Aerodrome Forecast
Issued by NWS Jacksonville, FL

Home | Current Version | Previous Version | Text Only | Print | Product List | Glossary On
Versions: 1 2 3 4 5 6 7 8 9 10 11 12 13 14 15
366
FTUS42 KJAX 290545
TAFGNV
TAF
KGNV 290545Z 2906/3006 00000KT P6SM FEW050 SCT250
     FM291300 27005KT P6SM FEW045 FEW250
     FM292300 18008KT P6SM SCT050 SCT250
     FM300100 21005KT P6SM SCT050 SCT150 BKN250=

USA.gov is the U.S. government's official web portal to all federal, state and local government web resources and services.